Time;durP1;ratioP1;P1;durP2;ratioP2;P2;SDS_P1;SDS_P2;PMS_P1;PMS_P2;Temp;Humidity;BMP_temperature;BMP_pressure;BME280_temperature;BME280_humidity;BME280_pressure;Samples;Min_cycle;Max_cycle;Signal;HPM_P1;HPM_P2
2023/11/28 00:01:14;;;;;;;1.20;1.20;;;;;;;;;;6279365;22;20183;-82
2023/11/28 00:03:42;;;;;;;1.00;0.90;;;;;;;;;;6280475;22;20240;-82
2023/11/28 00:06:15;;;;;;;0.77;0.77;;;;;;;;;;6280460;22;20183;-82
2023/11/28 00:08:42;;;;;;;0.50;0.50;;;;;;;;;;6279997;22;20275;-83
2023/11/28 00:11:11;;;;;;;0.70;0.70;;;;;;;;;;6279842;22;20587;-81
2023/11/28 00:13:38;;;;;;;0.60;0.60;;;;;;;;;;6279785;22;20196;-83
2023/11/28 00:16:06;;;;;;;0.60;0.60;;;;;;;;;;6279486;22;20275;-83
2023/11/28 00:18:35;;;;;;;0.52;0.52;;;;;;;;;;6279200;22;20239;-82
2023/11/28 00:21:03;;;;;;;0.60;0.60;;;;;;;;;;6280225;22;20262;-83
2023/11/28 00:23:30;;;;;;;0.65;0.65;;;;;;;;;;6278784;22;20685;-84
2023/11/28 00:25:58;;;;;;;0.50;0.50;;;;;;;;;;6278724;22;20178;-82
2023/11/28 00:28:26;;;;;;;0.55;0.55;;;;;;;;;;6278869;22;20283;-83
2023/11/28 00:30:53;;;;;;;0.47;0.47;;;;;;;;;;6278265;22;20176;-85
2023/11/28 00:33:21;;;;;;;0.38;0.38;;;;;;;;;;6279011;22;20259;-84
2023/11/28 00:35:50;;;;;;;0.50;0.50;;;;;;;;;;6279238;22;20199;-84
2023/11/28 00:38:17;;;;;;;0.50;0.50;;;;;;;;;;6279285;22;20271;-84
2023/11/28 00:40:46;;;;;;;0.57;0.57;;;;;;;;;;6278724;22;20200;-83
2023/11/28 00:43:14;;;;;;;0.52;0.52;;;;;;;;;;6278855;22;20203;-83
2023/11/28 00:45:42;;;;;;;0.50;0.50;;;;;;;;;;6279037;22;20176;-84
2023/11/28 00:48:09;;;;;;;0.50;0.50;;;;;;;;;;6278539;22;20279;-84
2023/11/28 00:50:37;;;;;;;0.57;0.57;;;;;;;;;;6278154;22;20180;-85
2023/11/28 00:53:06;;;;;;;0.60;0.60;;;;;;;;;;6278552;22;20223;-84
2023/11/28 00:55:33;;;;;;;0.52;0.52;;;;;;;;;;6278708;22;20176;-85
2023/11/28 00:58:01;;;;;;;0.50;0.50;;;;;;;;;;6278937;22;20207;-84
2023/11/28 01:00:28;;;;;;;0.50;0.50;;;;;;;;;;6278508;22;20200;-85
2023/11/28 01:02:56;;;;;;;0.50;0.50;;;;;;;;;;6278279;22;20180;-84
2023/11/28 01:05:23;;;;;;;0.60;0.60;;;;;;;;;;6278379;22;20211;-84
2023/11/28 01:07:51;;;;;;;0.50;0.50;;;;;;;;;;6277889;22;20271;-84
2023/11/28 01:10:20;;;;;;;0.43;0.43;;;;;;;;;;6277816;22;20255;-84
2023/11/28 01:12:47;;;;;;;0.50;0.50;;;;;;;;;;6277700;22;20495;-84
2023/11/28 01:15:14;;;;;;;0.40;0.40;;;;;;;;;;6277831;22;20207;-83
2023/11/28 01:17:42;;;;;;;0.60;0.60;;;;;;;;;;6278258;22;20189;-84
2023/11/28 01:20:11;;;;;;;0.40;0.40;;;;;;;;;;6278555;22;20502;-83
2023/11/28 01:22:39;;;;;;;0.40;0.40;;;;;;;;;;6278792;22;20236;-84
2023/11/28 01:25:08;;;;;;;0.40;0.40;;;;;;;;;;6278859;22;20573;-84
2023/11/28 01:27:36;;;;;;;0.55;0.55;;;;;;;;;;6278452;22;20279;-84
2023/11/28 01:30:05;;;;;;;0.50;0.50;;;;;;;;;;6277656;22;20259;-84
2023/11/28 01:32:32;;;;;;;0.40;0.40;;;;;;;;;;6278026;22;20251;-82
2023/11/28 01:35:00;;;;;;;0.45;0.45;;;;;;;;;;6277929;22;20177;-83
2023/11/28 01:37:27;;;;;;;0.60;0.60;;;;;;;;;;6278290;22;20196;-82
2023/11/28 01:39:55;;;;;;;0.40;0.40;;;;;;;;;;6278143;22;20172;-82
2023/11/28 01:42:22;;;;;;;0.45;0.45;;;;;;;;;;6279332;22;20223;-84
2023/11/28 01:44:51;;;;;;;0.30;0.30;;;;;;;;;;6278274;22;20665;-84
2023/11/28 01:47:18;;;;;;;0.32;0.32;;;;;;;;;;6277935;22;20271;-83
2023/11/28 01:49:46;;;;;;;0.43;0.43;;;;;;;;;;6277435;22;20180;-82
2023/11/28 01:52:14;;;;;;;0.30;0.30;;;;;;;;;;6278662;22;20172;-82
2023/11/28 01:54:42;;;;;;;0.38;0.38;;;;;;;;;;6278450;22;20576;-83
2023/11/28 01:57:10;;;;;;;0.38;0.38;;;;;;;;;;6278180;22;20637;-83
2023/11/28 01:59:38;;;;;;;0.40;0.40;;;;;;;;;;6278704;22;20199;-83
2023/11/28 02:02:08;;;;;;;0.40;0.40;;;;;;;;;;6277293;22;20172;-83
2023/11/28 02:04:35;;;;;;;0.40;0.40;;;;;;;;;;6278585;22;20157;-81
2023/11/28 02:07:03;;;;;;;0.40;0.40;;;;;;;;;;6278550;22;20261;-83
2023/11/28 02:09:31;;;;;;;0.40;0.40;;;;;;;;;;6278349;22;20227;-81
2023/11/28 02:11:58;;;;;;;0.40;0.40;;;;;;;;;;6277557;22;20251;-84
2023/11/28 02:14:25;;;;;;;0.40;0.40;;;;;;;;;;6278209;22;20253;-83
2023/11/28 02:16:53;;;;;;;0.40;0.40;;;;;;;;;;6278663;22;20227;-84
2023/11/28 02:19:22;;;;;;;0.30;0.30;;;;;;;;;;6278223;22;20502;-84
2023/11/28 02:21:50;;;;;;;0.82;0.40;;;;;;;;;;6277797;22;20689;-82
2023/11/28 02:24:19;;;;;;;0.40;0.40;;;;;;;;;;6278158;22;20266;-83
2023/11/28 02:26:48;;;;;;;0.40;0.40;;;;;;;;;;6277800;22;20208;-83
2023/11/28 02:29:15;;;;;;;0.40;0.40;;;;;;;;;;6278139;22;20275;-79
2023/11/28 02:31:43;;;;;;;0.30;0.30;;;;;;;;;;6278364;22;20672;-82
2023/11/28 02:34:10;;;;;;;0.43;0.43;;;;;;;;;;6278264;22;20251;-82
2023/11/28 02:36:38;;;;;;;0.47;0.47;;;;;;;;;;6277986;22;20211;-83
2023/11/28 02:39:05;;;;;;;0.32;0.32;;;;;;;;;;6279390;22;20192;-83
2023/11/28 02:41:33;;;;;;;0.52;0.52;;;;;;;;;;6278621;22;20231;-83
2023/11/28 02:44:02;;;;;;;0.40;0.40;;;;;;;;;;6278918;22;20255;-82
2023/11/28 02:46:29;;;;;;;0.32;0.32;;;;;;;;;;6278307;22;20259;-84
2023/11/28 02:48:56;;;;;;;0.60;0.60;;;;;;;;;;6278935;22;20284;-82
2023/11/28 02:51:24;;;;;;;0.38;0.38;;;;;;;;;;6278873;22;20260;-84
2023/11/28 02:53:51;;;;;;;0.30;0.30;;;;;;;;;;6278854;22;20255;-83
2023/11/28 02:56:19;;;;;;;0.47;0.47;;;;;;;;;;6279204;22;20203;-80
2023/11/28 02:58:47;;;;;;;0.40;0.40;;;;;;;;;;6279046;22;20632;-82
2023/11/28 03:01:15;;;;;;;0.40;0.40;;;;;;;;;;6277878;22;20260;-83
2023/11/28 03:03:43;;;;;;;0.40;0.40;;;;;;;;;;6278940;22;20230;-82
2023/11/28 03:06:11;;;;;;;0.50;0.50;;;;;;;;;;6278940;22;20199;-82
2023/11/28 03:08:38;;;;;;;0.35;0.35;;;;;;;;;;6279411;22;20250;-83
2023/11/28 03:11:06;;;;;;;0.57;0.57;;;;;;;;;;6280064;22;20211;-82
2023/11/28 03:13:34;;;;;;;0.50;0.50;;;;;;;;;;6279422;22;20256;-82
2023/11/28 03:16:03;;;;;;;1.08;0.70;;;;;;;;;;6278962;22;20274;-81
2023/11/28 03:18:32;;;;;;;1.05;0.55;;;;;;;;;;6280327;22;20283;-82
2023/11/28 03:21:00;;;;;;;0.50;0.50;;;;;;;;;;6279032;22;20172;-84
2023/11/28 03:23:27;;;;;;;0.90;0.90;;;;;;;;;;6278860;22;20267;-83
2023/11/28 03:25:55;;;;;;;0.85;0.77;;;;;;;;;;6279623;22;20204;-80
2023/11/28 03:28:22;;;;;;;0.80;0.80;;;;;;;;;;6279926;22;20275;-83
2023/11/28 03:30:51;;;;;;;0.70;0.70;;;;;;;;;;6279392;22;20172;-81
2023/11/28 03:33:18;;;;;;;0.80;0.80;;;;;;;;;;6279444;22;20231;-81
2023/11/28 03:35:47;;;;;;;0.70;0.70;;;;;;;;;;6280823;22;20652;-82
2023/11/28 03:38:14;;;;;;;0.80;0.80;;;;;;;;;;6281698;22;20220;-82
2023/11/28 03:40:42;;;;;;;0.80;0.80;;;;;;;;;;6281755;22;20251;-82
2023/11/28 03:43:09;;;;;;;0.80;0.80;;;;;;;;;;6282113;22;20255;-82
2023/11/28 03:45:37;;;;;;;0.80;0.80;;;;;;;;;;6281973;22;20238;-81
2023/11/28 03:48:05;;;;;;;0.70;0.70;;;;;;;;;;6281214;22;20267;-82
2023/11/28 03:50:32;;;;;;;0.90;0.90;;;;;;;;;;6281615;22;20243;-82
2023/11/28 03:53:01;;;;;;;0.70;0.70;;;;;;;;;;6282043;22;20182;-80
2023/11/28 03:55:29;;;;;;;0.85;0.85;;;;;;;;;;6282074;22;20264;-82
2023/11/28 03:57:56;;;;;;;0.80;0.80;;;;;;;;;;6281294;22;20522;-82
2023/11/28 04:00:23;;;;;;;0.80;0.80;;;;;;;;;;6282127;22;20251;-80
2023/11/28 04:02:51;;;;;;;1.10;1.10;;;;;;;;;;6282455;22;20195;-82
2023/11/28 04:05:19;;;;;;;1.00;1.00;;;;;;;;;;6281962;22;20709;-82
2023/11/28 04:07:46;;;;;;;1.20;1.10;;;;;;;;;;6282242;22;20192;-81
2023/11/28 04:10:15;;;;;;;1.10;1.10;;;;;;;;;;6281301;22;20279;-81
2023/11/28 04:12:42;;;;;;;1.33;1.33;;;;;;;;;;6281740;22;20673;-82
2023/11/28 04:15:12;;;;;;;1.30;1.30;;;;;;;;;;6281939;22;20251;-81
2023/11/28 04:17:39;;;;;;;1.35;1.25;;;;;;;;;;6282248;22;20254;-82
2023/11/28 04:20:09;;;;;;;1.60;1.50;;;;;;;;;;6282329;22;20256;-81
2023/11/28 04:22:37;;;;;;;1.70;1.60;;;;;;;;;;6282444;22;20187;-80
2023/11/28 04:25:06;;;;;;;1.83;1.73;;;;;;;;;;6282760;22;20255;-81
2023/11/28 04:27:35;;;;;;;1.50;1.40;;;;;;;;;;6282298;22;20200;-81
2023/11/28 04:30:02;;;;;;;1.38;1.35;;;;;;;;;;6282188;22;20279;-81
2023/11/28 04:32:30;;;;;;;1.88;1.77;;;;;;;;;;6282321;22;20211;-81
2023/11/28 04:34:57;;;;;;;1.80;1.70;;;;;;;;;;6282712;22;20199;-81
2023/11/28 04:37:25;;;;;;;2.20;2.00;;;;;;;;;;6282245;22;20204;-81
2023/11/28 04:39:52;;;;;;;1.80;1.70;;;;;;;;;;6282282;22;20203;-81
2023/11/28 04:42:20;;;;;;;1.75;1.65;;;;;;;;;;6281762;22;20199;-79
2023/11/28 04:44:48;;;;;;;1.75;1.65;;;;;;;;;;6282217;22;20200;-81
2023/11/28 04:47:16;;;;;;;1.63;1.52;;;;;;;;;;6280781;22;20254;-79
2023/11/28 04:49:44;;;;;;;1.60;1.50;;;;;;;;;;6282463;22;20283;-81
2023/11/28 04:52:11;;;;;;;1.70;1.60;;;;;;;;;;6280750;22;20176;-81
2023/11/28 04:54:39;;;;;;;1.73;1.63;;;;;;;;;;6281346;22;20184;-81
2023/11/28 04:57:07;;;;;;;2.28;2.17;;;;;;;;;;6282171;22;20177;-80
2023/11/28 04:59:34;;;;;;;1.70;1.60;;;;;;;;;;6282491;22;20658;-81
2023/11/28 05:02:03;;;;;;;2.38;2.17;;;;;;;;;;6280935;22;20251;-81
2023/11/28 05:04:31;;;;;;;2.00;1.80;;;;;;;;;;6280952;22;20518;-81
2023/11/28 05:06:58;;;;;;;2.15;2.05;;;;;;;;;;6281675;22;20204;-81
2023/11/28 05:09:27;;;;;;;1.80;1.70;;;;;;;;;;6282382;22;20231;-81
2023/11/28 05:11:54;;;;;;;2.20;2.10;;;;;;;;;;6281313;22;20180;-81
2023/11/28 05:14:22;;;;;;;2.75;2.55;;;;;;;;;;6281089;22;20196;-81
2023/11/28 05:16:49;;;;;;;2.60;2.40;;;;;;;;;;6281551;22;20565;-81
2023/11/28 05:19:18;;;;;;;2.70;2.50;;;;;;;;;;6281986;22;20252;-81
2023/11/28 05:21:46;;;;;;;2.53;2.33;;;;;;;;;;6280813;22;20200;-82
2023/11/28 05:24:13;;;;;;;2.20;2.03;;;;;;;;;;6280967;22;20240;-81
2023/11/28 05:26:40;;;;;;;2.85;2.30;;;;;;;;;;6281242;22;20204;-80
2023/11/28 05:29:08;;;;;;;2.05;1.95;;;;;;;;;;6280635;22;20214;-82
2023/11/28 05:31:35;;;;;;;2.90;2.70;;;;;;;;;;6280782;22;20199;-81
2023/11/28 05:34:03;;;;;;;2.90;2.70;;;;;;;;;;6280864;22;20260;-81
2023/11/28 05:36:31;;;;;;;2.70;2.50;;;;;;;;;;6281052;22;20263;-81
2023/11/28 05:38:59;;;;;;;3.08;2.65;;;;;;;;;;6281566;22;20279;-81
2023/11/28 05:41:26;;;;;;;2.38;2.28;;;;;;;;;;6281036;22;20207;-82
2023/11/28 05:43:54;;;;;;;2.70;2.45;;;;;;;;;;6281147;22;20183;-82
2023/11/28 05:46:21;;;;;;;2.63;2.42;;;;;;;;;;6281191;22;20200;-81
2023/11/28 05:48:49;;;;;;;2.20;2.10;;;;;;;;;;6281918;22;20226;-82
2023/11/28 05:51:16;;;;;;;2.67;2.33;;;;;;;;;;6281015;22;20204;-81
2023/11/28 05:53:45;;;;;;;2.33;2.13;;;;;;;;;;6281269;22;20261;-81
2023/11/28 05:56:14;;;;;;;2.72;2.53;;;;;;;;;;6281279;22;20264;-82
2023/11/28 05:58:41;;;;;;;2.58;2.38;;;;;;;;;;6280283;22;20219;-78
2023/11/28 06:01:09;;;;;;;2.40;2.30;;;;;;;;;;6281965;22;20247;-81
2023/11/28 06:03:38;;;;;;;2.33;2.17;;;;;;;;;;6281324;22;20264;-81
2023/11/28 06:06:06;;;;;;;2.83;2.50;;;;;;;;;;6285222;22;20183;-82
2023/11/28 06:08:34;;;;;;;2.42;2.28;;;;;;;;;;6284890;22;20271;-82
2023/11/28 06:11:02;;;;;;;3.45;2.35;;;;;;;;;;6283777;22;20267;-81
2023/11/28 06:13:30;;;;;;;2.53;2.33;;;;;;;;;;6283173;22;20255;-81
2023/11/28 06:15:58;;;;;;;2.40;2.20;;;;;;;;;;6280733;22;20232;-78
2023/11/28 06:18:26;;;;;;;3.40;2.70;;;;;;;;;;6284854;22;20192;-80
2023/11/28 06:20:54;;;;;;;2.30;2.10;;;;;;;;;;6283945;22;20172;-80
2023/11/28 06:23:21;;;;;;;2.70;2.50;;;;;;;;;;6278628;22;20188;-79
2023/11/28 06:25:49;;;;;;;2.72;2.53;;;;;;;;;;6279348;22;20259;-80
2023/11/28 06:28:17;;;;;;;2.35;2.15;;;;;;;;;;6278673;22;20223;-79
2023/11/28 06:30:45;;;;;;;2.35;2.20;;;;;;;;;;6278368;22;20272;-80
2023/11/28 06:33:12;;;;;;;2.80;2.60;;;;;;;;;;6279066;22;20259;-79
2023/11/28 06:35:40;;;;;;;3.05;2.58;;;;;;;;;;6279011;22;20255;-78
2023/11/28 06:38:08;;;;;;;4.43;2.95;;;;;;;;;;6277802;22;20278;-80
2023/11/28 06:40:35;;;;;;;2.22;2.03;;;;;;;;;;6278863;22;20259;-80
2023/11/28 06:43:03;;;;;;;2.88;2.67;;;;;;;;;;6277669;22;20204;-81
2023/11/28 06:45:32;;;;;;;3.08;2.53;;;;;;;;;;6278628;22;20247;-80
2023/11/28 06:48:00;;;;;;;2.70;2.47;;;;;;;;;;6278296;22;20279;-81
2023/11/28 06:50:28;;;;;;;3.28;2.95;;;;;;;;;;6279210;22;20279;-80
2023/11/28 06:52:55;;;;;;;3.08;2.67;;;;;;;;;;6278590;22;20179;-79
2023/11/28 06:55:23;;;;;;;2.70;2.40;;;;;;;;;;6279091;22;20574;-79
2023/11/28 06:57:50;;;;;;;3.15;2.85;;;;;;;;;;6278155;22;20275;-79
2023/11/28 07:00:18;;;;;;;3.05;2.85;;;;;;;;;;6277991;22;20200;-79
2023/11/28 07:02:48;;;;;;;3.03;2.83;;;;;;;;;;6277775;22;20251;-78
2023/11/28 07:05:16;;;;;;;3.65;3.42;;;;;;;;;;6279680;22;20259;-80
2023/11/28 07:07:44;;;;;;;3.40;3.00;;;;;;;;;;6279080;22;20199;-79
2023/11/28 07:10:11;;;;;;;3.15;2.80;;;;;;;;;;6278388;22;20679;-79
2023/11/28 07:12:39;;;;;;;3.33;2.88;;;;;;;;;;6278257;22;20561;-78
2023/11/28 07:15:07;;;;;;;2.95;2.75;;;;;;;;;;6278081;22;20294;-79
2023/11/28 07:17:35;;;;;;;3.03;2.83;;;;;;;;;;6278584;22;20692;-80
2023/11/28 07:20:04;;;;;;;3.25;2.95;;;;;;;;;;6278293;22;20633;-78
2023/11/28 07:22:31;;;;;;;3.15;2.67;;;;;;;;;;6278302;22;20633;-79
2023/11/28 07:24:59;;;;;;;3.40;3.10;;;;;;;;;;6278373;22;20247;-79
2023/11/28 07:27:26;;;;;;;3.30;3.00;;;;;;;;;;6278616;22;20176;-78
2023/11/28 07:29:54;;;;;;;3.10;2.75;;;;;;;;;;6279284;22;20698;-79
2023/11/28 07:32:23;;;;;;;3.58;3.08;;;;;;;;;;6278030;22;20228;-79
2023/11/28 07:34:51;;;;;;;3.28;2.97;;;;;;;;;;6278847;22;20202;-79
2023/11/28 07:37:19;;;;;;;2.92;2.63;;;;;;;;;;6278418;22;20259;-79
2023/11/28 07:39:47;;;;;;;2.80;2.60;;;;;;;;;;6277962;22;20207;-80
2023/11/28 07:42:16;;;;;;;3.65;2.90;;;;;;;;;;6277746;22;20252;-79
2023/11/28 07:44:44;;;;;;;3.65;3.35;;;;;;;;;;6279233;22;20222;-78
2023/11/28 07:47:11;;;;;;;3.30;3.03;;;;;;;;;;6279000;22;20183;-79
2023/11/28 07:49:39;;;;;;;3.22;2.92;;;;;;;;;;6277602;22;20259;-79
2023/11/28 07:52:07;;;;;;;2.90;2.70;;;;;;;;;;6277935;22;20218;-80
2023/11/28 07:54:36;;;;;;;2.95;2.70;;;;;;;;;;6278766;22;20176;-79
2023/11/28 07:57:03;;;;;;;3.33;2.80;;;;;;;;;;6278720;22;20255;-80
2023/11/28 07:59:31;;;;;;;2.70;2.50;;;;;;;;;;6277811;22;20275;-79
2023/11/28 08:01:58;;;;;;;4.82;2.60;;;;;;;;;;6278625;22;20378;-80
2023/11/28 08:04:26;;;;;;;3.05;2.75;;;;;;;;;;6279115;22;20251;-80
2023/11/28 08:06:54;;;;;;;3.20;2.90;;;;;;;;;;6278939;22;20173;-80
2023/11/28 08:09:23;;;;;;;3.47;3.20;;;;;;;;;;6278658;22;20224;-79
2023/11/28 08:11:52;;;;;;;7.25;2.97;;;;;;;;;;6278986;22;20254;-79
2023/11/28 08:14:20;;;;;;;3.50;2.90;;;;;;;;;;6278740;22;20184;-79
2023/11/28 08:16:48;;;;;;;3.40;3.10;;;;;;;;;;6279598;22;20184;-80
2023/11/28 08:19:15;;;;;;;4.70;3.33;;;;;;;;;;6278987;22;20294;-78
2023/11/28 08:21:42;;;;;;;3.03;2.70;;;;;;;;;;6279865;22;20251;-80
2023/11/28 08:24:10;;;;;;;3.83;3.45;;;;;;;;;;6281238;22;20204;-80
2023/11/28 08:26:37;;;;;;;4.03;3.42;;;;;;;;;;6281036;22;20271;-79
2023/11/28 08:29:06;;;;;;;3.15;2.92;;;;;;;;;;6280842;22;20223;-79
2023/11/28 08:31:34;;;;;;;4.38;3.80;;;;;;;;;;6280447;22;20578;-79
2023/11/28 08:34:01;;;;;;;5.68;4.03;;;;;;;;;;6280526;22;20681;-79
2023/11/28 08:36:29;;;;;;;3.80;3.50;;;;;;;;;;6280834;22;20264;-80
2023/11/28 08:38:57;;;;;;;4.72;3.42;;;;;;;;;;6280859;22;20203;-79
2023/11/28 08:41:24;;;;;;;4.07;3.67;;;;;;;;;;6280809;22;20208;-79
2023/11/28 08:43:51;;;;;;;3.60;3.30;;;;;;;;;;6281168;22;20176;-79
2023/11/28 08:46:20;;;;;;;3.70;3.40;;;;;;;;;;6281094;22;20204;-79
2023/11/28 08:48:50;;;;;;;3.72;3.40;;;;;;;;;;6281098;22;20271;-79
2023/11/28 08:51:17;;;;;;;3.67;3.38;;;;;;;;;;6280229;22;20177;-79
2023/11/28 08:53:44;;;;;;;4.20;3.55;;;;;;;;;;6281165;22;20184;-80
2023/11/28 08:56:13;;;;;;;3.75;3.45;;;;;;;;;;6281225;22;20644;-78
2023/11/28 08:58:41;;;;;;;5.55;3.83;;;;;;;;;;6281084;22;20200;-80
2023/11/28 09:01:09;;;;;;;3.65;3.35;;;;;;;;;;6281181;22;20581;-79
2023/11/28 09:03:37;;;;;;;3.83;3.28;;;;;;;;;;6281515;22;20177;-80
2023/11/28 09:06:07;;;;;;;3.90;3.33;;;;;;;;;;6280813;22;20255;-80
2023/11/28 09:08:34;;;;;;;5.78;3.38;;;;;;;;;;6281564;22;20593;-79
2023/11/28 09:11:02;;;;;;;4.03;3.20;;;;;;;;;;6281434;22;20207;-78
2023/11/28 09:13:30;;;;;;;4.00;2.92;;;;;;;;;;6281712;22;20248;-79
2023/11/28 09:15:59;;;;;;;4.13;3.78;;;;;;;;;;6281273;22;20215;-79
2023/11/28 09:18:26;;;;;;;3.28;2.97;;;;;;;;;;6281520;22;20231;-78
2023/11/28 09:20:55;;;;;;;4.28;3.65;;;;;;;;;;6281311;22;20264;-79
2023/11/28 09:23:22;;;;;;;3.55;3.25;;;;;;;;;;6280826;22;20264;-78
2023/11/28 09:25:50;;;;;;;2.67;2.45;;;;;;;;;;6281249;22;20176;-78
2023/11/28 09:28:17;;;;;;;3.33;3.03;;;;;;;;;;6281277;22;20275;-80
2023/11/28 09:30:45;;;;;;;2.15;2.05;;;;;;;;;;6280554;22;20240;-79
2023/11/28 09:33:12;;;;;;;3.40;2.72;;;;;;;;;;6280816;22;20279;-80
2023/11/28 09:35:40;;;;;;;3.65;2.85;;;;;;;;;;6281106;22;20256;-80
2023/11/28 09:38:10;;;;;;;3.35;2.70;;;;;;;;;;6280354;22;20202;-79
2023/11/28 09:40:38;;;;;;;3.03;2.72;;;;;;;;;;6281452;22;20191;-79
2023/11/28 09:43:06;;;;;;;3.53;3.20;;;;;;;;;;6281507;22;20177;-80
2023/11/28 09:45:35;;;;;;;4.57;2.92;;;;;;;;;;6280293;22;20184;-79
2023/11/28 09:48:06;;;;;;;3.53;3.22;;;;;;;;;;6281147;22;20294;-79
2023/11/28 09:50:34;;;;;;;3.08;2.75;;;;;;;;;;6281551;22;20164;-79
2023/11/28 09:53:03;;;;;;;2.92;2.40;;;;;;;;;;6281689;22;20637;-78
2023/11/28 09:55:32;;;;;;;2.72;2.40;;;;;;;;;;6281131;22;20172;-78
2023/11/28 09:58:03;;;;;;;3.38;3.05;;;;;;;;;;6281229;22;20196;-79
2023/11/28 10:00:35;;;;;;;2.65;2.50;;;;;;;;;;6280532;22;20528;-79
2023/11/28 10:03:03;;;;;;;3.17;2.45;;;;;;;;;;6280675;22;20488;-79
2023/11/28 10:05:31;;;;;;;2.92;2.67;;;;;;;;;;6280802;22;20176;-79
2023/11/28 10:07:58;;;;;;;3.65;2.90;;;;;;;;;;6280800;22;20279;-79
2023/11/28 10:10:26;;;;;;;2.53;2.30;;;;;;;;;;6279942;22;20724;-79
2023/11/28 10:12:55;;;;;;;4.68;2.80;;;;;;;;;;6285700;22;20581;-79
2023/11/28 10:15:25;;;;;;;3.10;2.80;;;;;;;;;;6290535;22;20255;-79
2023/11/28 10:17:52;;;;;;;2.97;2.60;;;;;;;;;;6291827;22;20254;-80
2023/11/28 10:20:21;;;;;;;2.60;2.40;;;;;;;;;;6289794;22;20230;-79
2023/11/28 10:22:53;;;;;;;3.13;2.92;;;;;;;;;;6290334;22;20496;-79
2023/11/28 10:25:23;;;;;;;3.22;2.80;;;;;;;;;;6289154;22;20176;-79
2023/11/28 10:27:57;;;;;;;3.22;2.92;;;;;;;;;;6290753;22;20210;-79
2023/11/28 10:30:27;;;;;;;2.90;2.65;;;;;;;;;;6290757;22;20168;-79
2023/11/28 10:32:59;;;;;;;2.95;2.65;;;;;;;;;;6290697;22;20196;-79
2023/11/28 10:35:40;;;;;;;3.17;2.88;;;;;;;;;;6290360;22;20541;-79
2023/11/28 10:38:11;;;;;;;3.03;2.80;;;;;;;;;;6288303;22;20227;-79
2023/11/28 10:40:38;;;;;;;3.22;2.53;;;;;;;;;;6289810;22;20161;-79
2023/11/28 10:43:08;;;;;;;2.78;2.58;;;;;;;;;;6289493;22;20225;-79
2023/11/28 10:45:37;;;;;;;2.72;2.53;;;;;;;;;;6290159;22;20172;-79
2023/11/28 10:48:05;;;;;;;4.07;3.28;;;;;;;;;;6289530;22;20202;-79
2023/11/28 10:50:33;;;;;;;2.75;2.50;;;;;;;;;;6290520;22;20200;-78
2023/11/28 10:53:05;;;;;;;2.67;2.47;;;;;;;;;;6288792;22;20251;-78
2023/11/28 10:55:40;;;;;;;2.80;2.60;;;;;;;;;;6289361;22;20469;-79
2023/11/28 10:58:11;;;;;;;2.95;2.55;;;;;;;;;;6289352;22;20203;-80
2023/11/28 11:00:40;;;;;;;3.72;3.17;;;;;;;;;;6290506;22;20184;-79
2023/11/28 11:03:09;;;;;;;3.53;3.22;;;;;;;;;;6290894;22;20177;-79
2023/11/28 11:05:37;;;;;;;3.75;3.40;;;;;;;;;;6289181;22;20187;-79
2023/11/28 11:08:05;;;;;;;3.80;3.30;;;;;;;;;;6290358;22;20227;-79
2023/11/28 11:10:33;;;;;;;3.90;3.60;;;;;;;;;;6289970;22;20621;-79
2023/11/28 11:13:08;;;;;;;6.70;6.13;;;;;;;;;;6290275;22;20219;-79
2023/11/28 11:15:44;;;;;;;5.15;4.68;;;;;;;;;;6289646;22;20167;-79
2023/11/28 11:18:20;;;;;;;4.60;4.18;;;;;;;;;;6289545;22;20196;-79
2023/11/28 11:20:51;;;;;;;4.65;4.28;;;;;;;;;;6288812;22;20616;-79
2023/11/28 11:23:20;;;;;;;3.50;3.20;;;;;;;;;;6289547;22;20204;-79
2023/11/28 11:25:53;;;;;;;3.75;2.97;;;;;;;;;;6288698;22;20230;-79
2023/11/28 11:28:21;;;;;;;4.32;3.95;;;;;;;;;;6292350;22;20196;-79
2023/11/28 11:30:50;;;;;;;3.33;3.03;;;;;;;;;;6289731;22;20180;-79
2023/11/28 11:33:24;;;;;;;3.75;3.45;;;;;;;;;;6290178;22;20231;-79
2023/11/28 11:36:07;;;;;;;2.90;2.70;;;;;;;;;;6288789;22;20168;-79
2023/11/28 11:38:35;;;;;;;3.78;3.22;;;;;;;;;;6289926;22;20196;-79
2023/11/28 11:41:05;;;;;;;3.83;3.53;;;;;;;;;;6290877;22;20200;-79
2023/11/28 11:43:37;;;;;;;3.60;3.30;;;;;;;;;;6292220;22;20511;-80
2023/11/28 11:46:12;;;;;;;3.25;3.05;;;;;;;;;;6292671;22;20161;-78
2023/11/28 11:48:40;;;;;;;3.90;3.03;;;;;;;;;;6290425;22;20572;-79
2023/11/28 11:51:08;;;;;;;3.92;3.55;;;;;;;;;;6292532;22;20204;-79
2023/11/28 11:53:39;;;;;;;2.60;2.40;;;;;;;;;;6289476;22;20297;-79
2023/11/28 11:56:08;;;;;;;3.63;3.15;;;;;;;;;;6291690;22;20176;-79
2023/11/28 11:58:36;;;;;;;3.25;3.05;;;;;;;;;;6292470;22;20196;-79
2023/11/28 12:01:04;;;;;;;7.95;7.15;;;;;;;;;;6291250;22;20212;-79
2023/11/28 12:03:33;;;;;;;7.63;6.82;;;;;;;;;;6293639;22;20173;-80
2023/11/28 12:06:00;;;;;;;6.88;6.18;;;;;;;;;;6293440;22;20672;-80
2023/11/28 12:08:28;;;;;;;5.40;3.92;;;;;;;;;;6292755;22;20232;-79
2023/11/28 12:11:06;;;;;;;4.95;4.43;;;;;;;;;;6292158;22;20199;-80
2023/11/28 12:13:34;;;;;;;4.00;2.88;;;;;;;;;;6294898;22;20180;-79
2023/11/28 12:16:03;;;;;;;3.58;3.28;;;;;;;;;;6293165;22;20176;-79
2023/11/28 12:18:32;;;;;;;4.60;3.03;;;;;;;;;;6293526;22;20188;-79
2023/11/28 12:21:00;;;;;;;3.58;2.90;;;;;;;;;;6293242;22;20176;-79
2023/11/28 12:23:27;;;;;;;3.05;2.72;;;;;;;;;;6292114;22;20204;-79
2023/11/28 12:25:57;;;;;;;3.80;3.20;;;;;;;;;;6292789;22;20200;-79
2023/11/28 12:28:25;;;;;;;4.50;2.78;;;;;;;;;;6292896;22;20242;-78
2023/11/28 12:30:52;;;;;;;3.38;3.08;;;;;;;;;;6293194;22;20203;-79
2023/11/28 12:33:20;;;;;;;3.92;2.78;;;;;;;;;;6291858;22;20219;-80
2023/11/28 12:35:49;;;;;;;2.50;2.30;;;;;;;;;;6293693;22;20169;-79
2023/11/28 12:38:18;;;;;;;3.17;2.80;;;;;;;;;;6294066;22;20192;-79
2023/11/28 12:40:45;;;;;;;2.60;2.40;;;;;;;;;;6293345;22;20617;-80
2023/11/28 12:43:21;;;;;;;3.20;2.78;;;;;;;;;;6293708;22;20184;-79
2023/11/28 12:45:51;;;;;;;3.17;2.60;;;;;;;;;;6293159;22;20175;-78
2023/11/28 12:48:19;;;;;;;2.85;2.65;;;;;;;;;;6293730;22;20252;-79
2023/11/28 12:50:46;;;;;;;3.20;2.95;;;;;;;;;;6290919;22;20571;-79
2023/11/28 12:53:19;;;;;;;2.05;1.95;;;;;;;;;;6293686;22;20183;-79
2023/11/28 12:55:47;;;;;;;3.95;3.35;;;;;;;;;;6291935;22;20669;-78
2023/11/28 12:58:17;;;;;;;3.58;3.28;;;;;;;;;;6293700;22;20198;-79
2023/11/28 13:00:45;;;;;;;4.75;4.10;;;;;;;;;;6293796;22;20223;-79
2023/11/28 13:03:13;;;;;;;2.75;2.55;;;;;;;;;;6291493;22;20176;-79
2023/11/28 13:05:41;;;;;;;4.32;4.03;;;;;;;;;;6291280;22;20172;-79
2023/11/28 13:08:08;;;;;;;3.53;3.22;;;;;;;;;;6291266;22;20216;-79
2023/11/28 13:10:37;;;;;;;4.60;4.13;;;;;;;;;;6292965;22;20187;-79
2023/11/28 13:13:05;;;;;;;3.55;2.63;;;;;;;;;;6292258;22;20200;-79
2023/11/28 13:15:33;;;;;;;3.20;2.90;;;;;;;;;;6291878;22;20223;-79
2023/11/28 13:18:01;;;;;;;2.85;2.55;;;;;;;;;;6293296;22;20200;-79
2023/11/28 13:20:28;;;;;;;3.40;3.20;;;;;;;;;;6291238;22;20177;-79
2023/11/28 13:22:56;;;;;;;2.58;2.38;;;;;;;;;;6292261;22;20242;-78
2023/11/28 13:25:23;;;;;;;3.13;2.83;;;;;;;;;;6291448;22;20219;-78
2023/11/28 13:27:52;;;;;;;3.50;3.13;;;;;;;;;;6291579;22;20204;-79
2023/11/28 13:30:20;;;;;;;3.65;3.15;;;;;;;;;;6291541;22;20177;-79
2023/11/28 13:32:47;;;;;;;3.42;2.97;;;;;;;;;;6293313;22;20207;-78
2023/11/28 13:35:15;;;;;;;2.75;2.53;;;;;;;;;;6290536;22;20196;-78
2023/11/28 13:37:42;;;;;;;3.30;3.10;;;;;;;;;;6292632;22;20197;-79
2023/11/28 13:40:11;;;;;;;2.95;2.75;;;;;;;;;;6291755;22;20214;-79
2023/11/28 13:42:39;;;;;;;2.58;2.38;;;;;;;;;;6291735;22;20252;-79
2023/11/28 13:45:09;;;;;;;2.80;2.60;;;;;;;;;;6292981;22;20173;-79
2023/11/28 13:47:36;;;;;;;3.53;2.42;;;;;;;;;;6291679;22;20188;-79
2023/11/28 13:50:08;;;;;;;2.78;2.58;;;;;;;;;;6292918;22;20220;-79
2023/11/28 13:52:36;;;;;;;3.78;3.17;;;;;;;;;;6292224;22;20161;-79
2023/11/28 13:55:05;;;;;;;7.75;2.22;;;;;;;;;;6291786;22;20259;-79
2023/11/28 13:57:32;;;;;;;3.42;2.67;;;;;;;;;;6292607;22;20180;-79
2023/11/28 13:59:59;;;;;;;3.13;2.47;;;;;;;;;;6292073;22;20211;-78
2023/11/28 14:02:28;;;;;;;2.75;2.20;;;;;;;;;;6291648;22;20660;-79
2023/11/28 14:04:56;;;;;;;2.38;2.20;;;;;;;;;;6292044;22;20199;-79
2023/11/28 14:07:23;;;;;;;3.35;2.95;;;;;;;;;;6291394;22;20183;-79
2023/11/28 14:09:51;;;;;;;3.63;3.00;;;;;;;;;;6291539;22;20173;-79
2023/11/28 14:12:18;;;;;;;4.40;3.10;;;;;;;;;;6290942;22;20176;-79
2023/11/28 14:14:46;;;;;;;3.33;3.03;;;;;;;;;;6292212;22;20661;-79
2023/11/28 14:17:13;;;;;;;3.22;2.75;;;;;;;;;;6291995;22;20183;-79
2023/11/28 14:19:42;;;;;;;4.80;4.40;;;;;;;;;;6291964;22;20172;-79
2023/11/28 14:22:11;;;;;;;5.45;4.43;;;;;;;;;;6291763;22;20476;-79
2023/11/28 14:24:38;;;;;;;4.38;3.83;;;;;;;;;;6292457;22;20161;-79
2023/11/28 14:27:06;;;;;;;8.73;6.35;;;;;;;;;;6291446;22;20203;-78
2023/11/28 14:29:34;;;;;;;6.70;4.63;;;;;;;;;;6290744;22;20540;-79
2023/11/28 14:32:02;;;;;;;5.47;4.60;;;;;;;;;;6292664;22;20637;-79
2023/11/28 14:34:30;;;;;;;7.00;4.13;;;;;;;;;;6292002;22;20679;-79
2023/11/28 14:36:59;;;;;;;4.07;3.40;;;;;;;;;;6290907;22;20172;-79
2023/11/28 14:39:26;;;;;;;2.85;2.55;;;;;;;;;;6291905;22;20220;-79
2023/11/28 14:41:54;;;;;;;4.03;3.63;;;;;;;;;;6290844;22;20196;-79
2023/11/28 14:44:21;;;;;;;3.53;3.22;;;;;;;;;;6291254;22;20176;-78
2023/11/28 14:46:49;;;;;;;3.28;2.55;;;;;;;;;;6290457;22;20645;-79
2023/11/28 14:49:16;;;;;;;3.00;2.70;;;;;;;;;;6291977;22;20232;-79